sensor_id;sensor_type;location;lat;lon;timestamp;pressure;altitude;pressure_sealevel;temperature;humidity
34185;BME280;20454;48.100;11.776;2023-02-19T00:01:19;95838.44;;;11.52;66.57
34185;BME280;20454;48.100;11.776;2023-02-19T00:03:54;95844.47;;;11.46;67.10
34185;BME280;20454;48.100;11.776;2023-02-19T00:06:22;95833.88;;;11.56;67.03
34185;BME280;20454;48.100;11.776;2023-02-19T00:08:48;95836.28;;;11.49;67.06
34185;BME280;20454;48.100;11.776;2023-02-19T00:11:20;95831.84;;;11.48;67.84
34185;BME280;20454;48.100;11.776;2023-02-19T00:13:48;95832.69;;;11.49;67.55
34185;BME280;20454;48.100;11.776;2023-02-19T00:16:20;95836.09;;;11.46;67.60
34185;BME280;20454;48.100;11.776;2023-02-19T00:18:47;95830.34;;;11.42;67.60
34185;BME280;20454;48.100;11.776;2023-02-19T00:21:15;95821.03;;;11.47;67.62
34185;BME280;20454;48.100;11.776;2023-02-19T00:23:42;95818.22;;;11.38;68.07
34185;BME280;20454;48.100;11.776;2023-02-19T00:26:11;95822.28;;;11.32;68.51
34185;BME280;20454;48.100;11.776;2023-02-19T00:28:38;95822.41;;;11.27;68.83
34185;BME280;20454;48.100;11.776;2023-02-19T00:31:20;95826.38;;;11.35;68.77
34185;BME280;20454;48.100;11.776;2023-02-19T00:33:48;95830.16;;;11.39;68.00
34185;BME280;20454;48.100;11.776;2023-02-19T00:36:15;95813.97;;;11.41;68.53
34185;BME280;20454;48.100;11.776;2023-02-19T00:38:42;95816.69;;;11.32;68.76
34185;BME280;20454;48.100;11.776;2023-02-19T00:41:09;95821.97;;;11.34;68.75
34185;BME280;20454;48.100;11.776;2023-02-19T00:46:32;95824.88;;;11.29;69.19
34185;BME280;20454;48.100;11.776;2023-02-19T00:48:58;95823.59;;;11.35;68.75
34185;BME280;20454;48.100;11.776;2023-02-19T00:51:28;95801.16;;;11.40;68.32
34185;BME280;20454;48.100;11.776;2023-02-19T00:53:55;95809.50;;;11.40;68.09
34185;BME280;20454;48.100;11.776;2023-02-19T00:56:21;95801.81;;;11.37;68.26
34185;BME280;20454;48.100;11.776;2023-02-19T00:58:47;95808.16;;;11.29;68.74
34185;BME280;20454;48.100;11.776;2023-02-19T01:01:14;95798.53;;;11.35;68.60
34185;BME280;20454;48.100;11.776;2023-02-19T01:03:40;95797.22;;;11.32;68.75
34185;BME280;20454;48.100;11.776;2023-02-19T01:06:09;95791.28;;;11.25;68.78
34185;BME280;20454;48.100;11.776;2023-02-19T01:08:36;95788.19;;;11.27;68.30
34185;BME280;20454;48.100;11.776;2023-02-19T01:11:03;95790.63;;;11.28;68.88
34185;BME280;20454;48.100;11.776;2023-02-19T01:13:30;95776.19;;;11.26;68.92
34185;BME280;20454;48.100;11.776;2023-02-19T01:16:04;95789.63;;;11.24;69.42
34185;BME280;20454;48.100;11.776;2023-02-19T01:18:31;95786.19;;;11.27;69.07
34185;BME280;20454;48.100;11.776;2023-02-19T01:20:57;95773.34;;;11.18;69.20
34185;BME280;20454;48.100;11.776;2023-02-19T01:23:23;95770.56;;;11.18;69.37
34185;BME280;20454;48.100;11.776;2023-02-19T01:25:49;95778.16;;;11.26;69.23
34185;BME280;20454;48.100;11.776;2023-02-19T01:28:14;95778.94;;;11.18;69.33
34185;BME280;20454;48.100;11.776;2023-02-19T01:30:40;95763.00;;;11.10;69.35
34185;BME280;20454;48.100;11.776;2023-02-19T01:33:07;95766.16;;;11.17;69.41
34185;BME280;20454;48.100;11.776;2023-02-19T01:35:37;95766.66;;;11.19;69.58
34185;BME280;20454;48.100;11.776;2023-02-19T01:38:03;95775.28;;;11.09;69.76
34185;BME280;20454;48.100;11.776;2023-02-19T01:40:29;95759.25;;;11.14;69.55
34185;BME280;20454;48.100;11.776;2023-02-19T01:42:54;95762.22;;;11.18;69.77
34185;BME280;20454;48.100;11.776;2023-02-19T01:45:33;95769.72;;;11.09;70.13
34185;BME280;20454;48.100;11.776;2023-02-19T01:48:05;95767.16;;;11.21;69.68
34185;BME280;20454;48.100;11.776;2023-02-19T01:50:55;95764.75;;;11.06;70.07
34185;BME280;20454;48.100;11.776;2023-02-19T01:53:26;95750.16;;;11.00;70.42
34185;BME280;20454;48.100;11.776;2023-02-19T01:55:57;95770.50;;;11.01;70.53
34185;BME280;20454;48.100;11.776;2023-02-19T01:58:29;95755.84;;;10.95;70.63
34185;BME280;20454;48.100;11.776;2023-02-19T02:00:57;95761.44;;;10.95;70.70
34185;BME280;20454;48.100;11.776;2023-02-19T02:03:23;95742.38;;;11.11;69.71
34185;BME280;20454;48.100;11.776;2023-02-19T02:06:01;95737.56;;;11.03;70.24
34185;BME280;20454;48.100;11.776;2023-02-19T02:08:31;95742.50;;;11.06;69.88
34185;BME280;20454;48.100;11.776;2023-02-19T02:11:16;95740.84;;;11.05;70.37
34185;BME280;20454;48.100;11.776;2023-02-19T02:13:42;95733.56;;;11.17;69.27
34185;BME280;20454;48.100;11.776;2023-02-19T02:19:03;95739.22;;;11.04;70.73
34185;BME280;20454;48.100;11.776;2023-02-19T02:27:52;95730.59;;;10.83;73.47
34185;BME280;20454;48.100;11.776;2023-02-19T02:33:24;95725.44;;;10.68;76.23
34185;BME280;20454;48.100;11.776;2023-02-19T02:36:16;95724.22;;;10.61;78.85
34185;BME280;20454;48.100;11.776;2023-02-19T02:38:44;95727.50;;;10.63;77.74
34185;BME280;20454;48.100;11.776;2023-02-19T02:41:12;95719.72;;;10.51;80.01
34185;BME280;20454;48.100;11.776;2023-02-19T02:43:39;95715.25;;;10.42;80.24
34185;BME280;20454;48.100;11.776;2023-02-19T02:46:05;95724.84;;;10.36;81.38
34185;BME280;20454;48.100;11.776;2023-02-19T02:48:35;95724.84;;;10.36;81.49
34185;BME280;20454;48.100;11.776;2023-02-19T02:51:18;95722.19;;;10.31;81.37
34185;BME280;20454;48.100;11.776;2023-02-19T02:54:05;95733.19;;;10.36;82.62
34185;BME280;20454;48.100;11.776;2023-02-19T02:56:51;95716.44;;;10.27;83.62
34185;BME280;20454;48.100;11.776;2023-02-19T02:59:23;95711.75;;;10.14;85.40
34185;BME280;20454;48.100;11.776;2023-02-19T07:32:19;95841.28;;;9.61;91.55
34185;BME280;20454;48.100;11.776;2023-02-19T07:34:45;95828.53;;;9.60;91.69
34185;BME280;20454;48.100;11.776;2023-02-19T07:37:11;95841.28;;;9.61;92.33
34185;BME280;20454;48.100;11.776;2023-02-19T07:39:36;95853.31;;;9.57;93.03
34185;BME280;20454;48.100;11.776;2023-02-19T07:42:02;95845.72;;;9.76;91.14
34185;BME280;20454;48.100;11.776;2023-02-19T07:44:28;95850.84;;;9.69;91.44
34185;BME280;20454;48.100;11.776;2023-02-19T07:46:54;95854.84;;;9.76;90.87
34185;BME280;20454;48.100;11.776;2023-02-19T07:49:19;95850.94;;;9.77;92.34
34185;BME280;20454;48.100;11.776;2023-02-19T07:51:45;95849.00;;;9.78;91.33
34185;BME280;20454;48.100;11.776;2023-02-19T07:54:11;95867.44;;;9.87;90.25
34185;BME280;20454;48.100;11.776;2023-02-19T07:56:36;95861.25;;;9.77;91.40
34185;BME280;20454;48.100;11.776;2023-02-19T07:59:03;95877.00;;;9.81;91.11
34185;BME280;20454;48.100;11.776;2023-02-19T08:01:29;95884.22;;;9.96;90.60
34185;BME280;20454;48.100;11.776;2023-02-19T08:04:14;95869.38;;;9.87;91.70
34185;BME280;20454;48.100;11.776;2023-02-19T08:06:40;95877.91;;;9.90;90.29
34185;BME280;20454;48.100;11.776;2023-02-19T08:09:07;95883.78;;;9.89;90.64
34185;BME280;20454;48.100;11.776;2023-02-19T08:11:32;95895.31;;;9.82;90.92
34185;BME280;20454;48.100;11.776;2023-02-19T08:14:17;95891.50;;;9.92;90.24
34185;BME280;20454;48.100;11.776;2023-02-19T08:16:50;95901.91;;;9.86;91.22
34185;BME280;20454;48.100;11.776;2023-02-19T08:19:15;95899.34;;;9.90;90.47
34185;BME280;20454;48.100;11.776;2023-02-19T08:21:41;95906.53;;;9.91;90.48
34185;BME280;20454;48.100;11.776;2023-02-19T08:24:07;95905.63;;;9.82;91.48
34185;BME280;20454;48.100;11.776;2023-02-19T08:26:33;95903.84;;;9.72;92.73
34185;BME280;20454;48.100;11.776;2023-02-19T08:28:58;95903.72;;;9.77;92.67
34185;BME280;20454;48.100;11.776;2023-02-19T08:31:24;95901.88;;;9.73;93.05
34185;BME280;20454;48.100;11.776;2023-02-19T08:33:51;95903.63;;;9.82;93.05
34185;BME280;20454;48.100;11.776;2023-02-19T08:36:17;95906.94;;;9.84;92.28
34185;BME280;20454;48.100;11.776;2023-02-19T08:38:43;95906.31;;;9.87;91.04
34185;BME280;20454;48.100;11.776;2023-02-19T08:41:10;95911.03;;;9.87;90.84
34185;BME280;20454;48.100;11.776;2023-02-19T08:43:36;95920.53;;;9.99;89.35
34185;BME280;20454;48.100;11.776;2023-02-19T08:46:02;95925.78;;;10.01;90.73
34185;BME280;20454;48.100;11.776;2023-02-19T08:48:28;95923.16;;;10.09;89.57
34185;BME280;20454;48.100;11.776;2023-02-19T08:50:56;95928.06;;;9.99;90.55
34185;BME280;20454;48.100;11.776;2023-02-19T08:53:22;95932.97;;;10.02;89.02
34185;BME280;20454;48.100;11.776;2023-02-19T08:55:48;95936.19;;;9.95;89.63
34185;BME280;20454;48.100;11.776;2023-02-19T08:58:13;95947.50;;;9.99;90.39
34185;BME280;20454;48.100;11.776;2023-02-19T09:00:39;95944.66;;;10.04;89.31
34185;BME280;20454;48.100;11.776;2023-02-19T09:03:05;95945.19;;;10.06;88.74
34185;BME280;20454;48.100;11.776;2023-02-19T09:05:30;95945.19;;;10.06;88.46
34185;BME280;20454;48.100;11.776;2023-02-19T09:07:56;95956.47;;;9.96;89.82
34185;BME280;20454;48.100;11.776;2023-02-19T09:10:22;95949.16;;;9.86;90.50
34185;BME280;20454;48.100;11.776;2023-02-19T09:12:47;95950.78;;;9.87;90.25
34185;BME280;20454;48.100;11.776;2023-02-19T09:15:13;95947.81;;;9.84;89.23
34185;BME280;20454;48.100;11.776;2023-02-19T09:17:39;95947.16;;;9.73;88.17
34185;BME280;20454;48.100;11.776;2023-02-19T09:20:04;95944.69;;;9.72;88.56
34185;BME280;20454;48.100;11.776;2023-02-19T09:22:30;95951.59;;;9.74;90.26
34185;BME280;20454;48.100;11.776;2023-02-19T09:24:56;95947.88;;;9.79;88.79
34185;BME280;20454;48.100;11.776;2023-02-19T09:27:21;95946.75;;;9.80;85.62
34185;BME280;20454;48.100;11.776;2023-02-19T09:29:47;95943.69;;;9.81;86.40
34185;BME280;20454;48.100;11.776;2023-02-19T09:32:13;95956.22;;;9.79;87.78
34185;BME280;20454;48.100;11.776;2023-02-19T09:34:38;95952.72;;;9.87;88.16
34185;BME280;20454;48.100;11.776;2023-02-19T09:37:05;95955.63;;;9.82;89.06
34185;BME280;20454;48.100;11.776;2023-02-19T09:39:31;95956.84;;;9.89;85.17
34185;BME280;20454;48.100;11.776;2023-02-19T09:42:12;95951.03;;;10.04;83.48
34185;BME280;20454;48.100;11.776;2023-02-19T09:44:43;95948.47;;;10.08;81.20
34185;BME280;20454;48.100;11.776;2023-02-19T09:47:23;95955.53;;;10.00;80.60
34185;BME280;20454;48.100;11.776;2023-02-19T09:49:54;95942.56;;;9.96;79.42
34185;BME280;20454;48.100;11.776;2023-02-19T09:52:45;95945.56;;;9.99;78.43
34185;BME280;20454;48.100;11.776;2023-02-19T09:57:46;95956.19;;;10.11;76.84
34185;BME280;20454;48.100;11.776;2023-02-19T10:31:21;95987.06;;;10.77;69.16
34185;BME280;20454;48.100;11.776;2023-02-19T10:33:54;95982.63;;;10.89;67.02
34185;BME280;20454;48.100;11.776;2023-02-19T10:36:24;95977.97;;;10.85;66.44
34185;BME280;20454;48.100;11.776;2023-02-19T10:38:51;95988.38;;;10.93;67.11
34185;BME280;20454;48.100;11.776;2023-02-19T10:41:20;96000.31;;;11.07;65.25
34185;BME280;20454;48.100;11.776;2023-02-19T10:46:18;95984.63;;;11.33;63.36
34185;BME280;20454;48.100;11.776;2023-02-19T10:48:51;95976.56;;;11.67;61.62
34185;BME280;20454;48.100;11.776;2023-02-19T10:51:17;95976.38;;;11.85;60.11
34185;BME280;20454;48.100;11.776;2023-02-19T10:54:05;95983.75;;;11.81;60.85
34185;BME280;20454;48.100;11.776;2023-02-19T10:56:31;95979.16;;;12.16;58.77
34185;BME280;20454;48.100;11.776;2023-02-19T11:02:01;95973.94;;;13.18;56.18
34185;BME280;20454;48.100;11.776;2023-02-19T11:04:29;95967.72;;;13.46;54.49
34185;BME280;20454;48.100;11.776;2023-02-19T11:07:09;95965.56;;;13.77;54.42
34185;BME280;20454;48.100;11.776;2023-02-19T11:09:40;95955.69;;;13.71;53.06
34185;BME280;20454;48.100;11.776;2023-02-19T11:12:07;95959.00;;;13.73;53.27
34185;BME280;20454;48.100;11.776;2023-02-19T11:14:34;95960.00;;;13.52;51.17
34185;BME280;20454;48.100;11.776;2023-02-19T11:17:01;95969.50;;;13.34;52.18
34185;BME280;20454;48.100;11.776;2023-02-19T11:19:33;95964.25;;;13.07;51.62
34185;BME280;20454;48.100;11.776;2023-02-19T11:22:36;95953.66;;;12.87;52.85
34185;BME280;20454;48.100;11.776;2023-02-19T11:27:37;95948.28;;;12.43;53.47
34185;BME280;20454;48.100;11.776;2023-02-19T11:30:31;95976.84;;;12.09;55.13
34185;BME280;20454;48.100;11.776;2023-02-19T11:35:44;95963.78;;;11.66;56.59
34185;BME280;20454;48.100;11.776;2023-02-19T11:38:12;95973.66;;;11.50;58.82
34185;BME280;20454;48.100;11.776;2023-02-19T11:41:12;95978.06;;;11.51;58.97
34185;BME280;20454;48.100;11.776;2023-02-19T11:43:53;95974.53;;;11.37;58.68
34185;BME280;20454;48.100;11.776;2023-02-19T11:46:36;95984.28;;;11.48;59.18
34185;BME280;20454;48.100;11.776;2023-02-19T11:49:14;95986.63;;;11.32;59.05
34185;BME280;20454;48.100;11.776;2023-02-19T11:51:57;95986.31;;;11.34;59.44
34185;BME280;20454;48.100;11.776;2023-02-19T12:08:47;95989.13;;;11.20;66.13
34185;BME280;20454;48.100;11.776;2023-02-19T12:14:28;95986.66;;;10.70;69.81
34185;BME280;20454;48.100;11.776;2023-02-19T12:22:41;95984.63;;;10.48;68.70
34185;BME280;20454;48.100;11.776;2023-02-19T12:28:01;95990.38;;;10.79;63.90
34185;BME280;20454;48.100;11.776;2023-02-19T12:38:43;95989.13;;;11.20;61.73
34185;BME280;20454;48.100;11.776;2023-02-19T12:41:42;95991.88;;;11.34;61.63
34185;BME280;20454;48.100;11.776;2023-02-19T12:46:37;95997.69;;;11.46;61.05
34185;BME280;20454;48.100;11.776;2023-02-19T12:52:05;96002.94;;;11.61;58.50
34185;BME280;20454;48.100;11.776;2023-02-19T12:54:34;96004.41;;;11.58;59.04
34185;BME280;20454;48.100;11.776;2023-02-19T12:57:17;96020.44;;;11.39;60.62
34185;BME280;20454;48.100;11.776;2023-02-19T13:02:58;96023.88;;;11.23;61.29
34185;BME280;20454;48.100;11.776;2023-02-19T13:05:01;96013.09;;;11.08;63.33
34185;BME280;20454;48.100;11.776;2023-02-19T13:07:35;96023.09;;;10.95;63.55
34185;BME280;20454;48.100;11.776;2023-02-19T13:10:32;96026.97;;;10.86;63.59
34185;BME280;20454;48.100;11.776;2023-02-19T13:13:05;96041.59;;;10.78;60.00
34185;BME280;20454;48.100;11.776;2023-02-19T13:15:40;96016.44;;;10.83;59.80
34185;BME280;20454;48.100;11.776;2023-02-19T13:18:57;96012.50;;;10.84;59.06
34185;BME280;20454;48.100;11.776;2023-02-19T13:20:57;96016.22;;;10.79;57.98
34185;BME280;20454;48.100;11.776;2023-02-19T13:23:31;96028.91;;;10.85;57.47
34185;BME280;20454;48.100;11.776;2023-02-19T13:26:47;96029.47;;;11.23;56.46
34185;BME280;20454;48.100;11.776;2023-02-19T13:29:30;96030.88;;;11.34;55.31
34185;BME280;20454;48.100;11.776;2023-02-19T13:35:21;96023.44;;;11.29;56.05
34185;BME280;20454;48.100;11.776;2023-02-19T13:37:48;96023.78;;;11.28;56.40
34185;BME280;20454;48.100;11.776;2023-02-19T13:42:53;96009.28;;;11.39;57.04
34185;BME280;20454;48.100;11.776;2023-02-19T13:45:42;96004.91;;;11.47;57.06
34185;BME280;20454;48.100;11.776;2023-02-19T13:48:13;96006.19;;;11.41;56.99
34185;BME280;20454;48.100;11.776;2023-02-19T13:50:39;95996.03;;;11.23;57.44
34185;BME280;20454;48.100;11.776;2023-02-19T14:20:44;96039.13;;;10.63;60.00
34185;BME280;20454;48.100;11.776;2023-02-19T14:22:46;96040.47;;;10.52;59.27
34185;BME280;20454;48.100;11.776;2023-02-19T14:27:52;96052.50;;;10.34;60.53
34185;BME280;20454;48.100;11.776;2023-02-19T14:30:18;96042.72;;;10.23;60.57
34185;BME280;20454;48.100;11.776;2023-02-19T14:32:46;96047.22;;;10.19;61.15
34185;BME280;20454;48.100;11.776;2023-02-19T14:35:20;96038.97;;;10.14;61.43
34185;BME280;20454;48.100;11.776;2023-02-19T14:37:47;96048.75;;;10.11;62.13
34185;BME280;20454;48.100;11.776;2023-02-19T14:40:20;96049.16;;;10.05;62.62
34185;BME280;20454;48.100;11.776;2023-02-19T14:42:48;96044.41;;;10.05;62.46
34185;BME280;20454;48.100;11.776;2023-02-19T14:45:15;96044.56;;;9.95;61.90
34185;BME280;20454;48.100;11.776;2023-02-19T14:47:43;96043.84;;;9.90;63.31
34185;BME280;20454;48.100;11.776;2023-02-19T14:50:32;96042.72;;;9.91;63.09
34185;BME280;20454;48.100;11.776;2023-02-19T14:53:03;96045.19;;;9.92;63.08
34185;BME280;20454;48.100;11.776;2023-02-19T14:55:36;96043.09;;;9.84;63.54
34185;BME280;20454;48.100;11.776;2023-02-19T14:58:06;96053.75;;;9.96;63.58
34185;BME280;20454;48.100;11.776;2023-02-19T15:00:37;96050.63;;;9.84;64.27
34185;BME280;20454;48.100;11.776;2023-02-19T15:03:03;96050.53;;;9.89;64.90
34185;BME280;20454;48.100;11.776;2023-02-19T15:05:31;96052.06;;;9.81;65.64
34185;BME280;20454;48.100;11.776;2023-02-19T15:08:01;96064.72;;;9.87;64.80
34185;BME280;20454;48.100;11.776;2023-02-19T15:10:29;96048.22;;;9.77;64.75
34185;BME280;20454;48.100;11.776;2023-02-19T15:13:03;96054.00;;;9.81;65.53
34185;BME280;20454;48.100;11.776;2023-02-19T15:15:35;96062.88;;;9.83;64.28
34185;BME280;20454;48.100;11.776;2023-02-19T15:18:04;96065.22;;;9.76;65.05
34185;BME280;20454;48.100;11.776;2023-02-19T15:20:33;96058.03;;;9.88;65.24
34185;BME280;20454;48.100;11.776;2023-02-19T15:22:59;96060.41;;;9.95;64.36
34185;BME280;20454;48.100;11.776;2023-02-19T15:25:29;96080.41;;;9.97;63.79
34185;BME280;20454;48.100;11.776;2023-02-19T15:33:23;96085.69;;;9.80;65.13
34185;BME280;20454;48.100;11.776;2023-02-19T15:35:57;96086.81;;;9.79;65.42
34185;BME280;20454;48.100;11.776;2023-02-19T15:38:24;96095.66;;;9.81;65.30
34185;BME280;20454;48.100;11.776;2023-02-19T15:40:50;96088.97;;;10.00;63.69
34185;BME280;20454;48.100;11.776;2023-02-19T15:43:37;96094.31;;;9.97;64.62
34185;BME280;20454;48.100;11.776;2023-02-19T15:46:14;96096.47;;;10.00;64.00
34185;BME280;20454;48.100;11.776;2023-02-19T15:51:39;96094.81;;;9.99;63.53
34185;BME280;20454;48.100;11.776;2023-02-19T15:54:30;96101.22;;;9.99;63.11
34185;BME280;20454;48.100;11.776;2023-02-19T15:57:03;96084.91;;;9.93;63.45
34185;BME280;20454;48.100;11.776;2023-02-19T15:59:38;96085.91;;;9.83;64.24
34185;BME280;20454;48.100;11.776;2023-02-19T16:02:13;96081.56;;;9.77;64.24
34185;BME280;20454;48.100;11.776;2023-02-19T16:04:42;96091.44;;;9.70;63.82
34185;BME280;20454;48.100;11.776;2023-02-19T16:07:27;96090.81;;;9.54;64.73
34185;BME280;20454;48.100;11.776;2023-02-19T16:10:20;96094.50;;;9.50;65.56
34185;BME280;20454;48.100;11.776;2023-02-19T16:13:01;96092.19;;;9.39;64.95
34185;BME280;20454;48.100;11.776;2023-02-19T16:15:29;96095.88;;;9.34;65.24
34185;BME280;20454;48.100;11.776;2023-02-19T16:17:56;96094.81;;;9.30;65.01
34185;BME280;20454;48.100;11.776;2023-02-19T16:20:27;96097.13;;;9.23;65.79
34185;BME280;20454;48.100;11.776;2023-02-19T16:23:03;96099.47;;;9.16;65.28
34185;BME280;20454;48.100;11.776;2023-02-19T16:25:40;96100.13;;;9.08;66.04
34185;BME280;20454;48.100;11.776;2023-02-19T16:28:20;96111.56;;;9.02;66.83
34185;BME280;20454;48.100;11.776;2023-02-19T16:31:01;96113.59;;;8.96;66.45
34185;BME280;20454;48.100;11.776;2023-02-19T16:33:37;96118.03;;;8.97;66.19
34185;BME280;20454;48.100;11.776;2023-02-19T16:41:34;96137.41;;;8.79;66.68
34185;BME280;20454;48.100;11.776;2023-02-19T16:46:53;96137.22;;;8.70;67.48
34185;BME280;20454;48.100;11.776;2023-02-19T16:49:20;96148.06;;;8.67;67.97
34185;BME280;20454;48.100;11.776;2023-02-19T16:51:47;96153.09;;;8.65;67.58
34185;BME280;20454;48.100;11.776;2023-02-19T16:54:13;96160.91;;;8.63;67.48
34185;BME280;20454;48.100;11.776;2023-02-19T16:56:39;96163.38;;;8.64;67.85
34185;BME280;20454;48.100;11.776;2023-02-19T16:59:04;96158.22;;;8.53;67.85
34185;BME280;20454;48.100;11.776;2023-02-19T17:01:33;96160.19;;;8.52;68.74
34185;BME280;20454;48.100;11.776;2023-02-19T17:11:20;96177.31;;;8.31;70.02
34185;BME280;20454;48.100;11.776;2023-02-19T17:13:46;96188.63;;;8.34;70.05
34185;BME280;20454;48.100;11.776;2023-02-19T17:16:25;96184.72;;;8.35;70.25
34185;BME280;20454;48.100;11.776;2023-02-19T17:18:52;96185.34;;;8.32;70.29
34185;BME280;20454;48.100;11.776;2023-02-19T17:21:29;96190.09;;;8.27;70.70
34185;BME280;20454;48.100;11.776;2023-02-19T17:23:56;96181.53;;;8.23;71.81
34185;BME280;20454;48.100;11.776;2023-02-19T17:26:25;96186.00;;;8.19;71.81
34185;BME280;20454;48.100;11.776;2023-02-19T17:28:52;96189.34;;;8.16;71.65
34185;BME280;20454;48.100;11.776;2023-02-19T17:31:18;96198.69;;;8.25;71.91
34185;BME280;20454;48.100;11.776;2023-02-19T17:33:44;96193.44;;;8.24;71.91
34185;BME280;20454;48.100;11.776;2023-02-19T17:36:21;96192.31;;;8.25;72.17
34185;BME280;20454;48.100;11.776;2023-02-19T17:38:48;96207.28;;;8.24;72.34
34185;BME280;20454;48.100;11.776;2023-02-19T17:41:13;96200.69;;;8.20;72.52
34185;BME280;20454;48.100;11.776;2023-02-19T17:43:39;96200.63;;;8.25;72.80
34185;BME280;20454;48.100;11.776;2023-02-19T17:46:05;96212.03;;;8.23;73.00
34185;BME280;20454;48.100;11.776;2023-02-19T17:48:31;96212.28;;;8.27;72.44
34185;BME280;20454;48.100;11.776;2023-02-19T17:50:57;96219.13;;;8.34;72.57
34185;BME280;20454;48.100;11.776;2023-02-19T17:53:22;96226.53;;;8.44;70.95
34185;BME280;20454;48.100;11.776;2023-02-19T17:55:48;96220.16;;;8.43;71.38
34185;BME280;20454;48.100;11.776;2023-02-19T17:58:14;96228.22;;;8.40;71.91
34185;BME280;20454;48.100;11.776;2023-02-19T18:00:40;96237.34;;;8.45;70.80
34185;BME280;20454;48.100;11.776;2023-02-19T18:03:05;96236.78;;;8.43;70.76
34185;BME280;20454;48.100;11.776;2023-02-19T18:05:34;96240.09;;;8.45;71.15
34185;BME280;20454;48.100;11.776;2023-02-19T18:08:00;96253.66;;;8.47;71.05
34185;BME280;20454;48.100;11.776;2023-02-19T18:10:26;96257.81;;;8.49;70.92
34185;BME280;20454;48.100;11.776;2023-02-19T18:12:52;96253.66;;;8.47;70.49
34185;BME280;20454;48.100;11.776;2023-02-19T18:15:21;96265.00;;;8.50;70.44
34185;BME280;20454;48.100;11.776;2023-02-19T18:17:48;96266.69;;;8.51;70.74
34185;BME280;20454;48.100;11.776;2023-02-19T18:20:21;96259.97;;;8.57;69.98
34185;BME280;20454;48.100;11.776;2023-02-19T18:22:47;96259.66;;;8.59;70.73
34185;BME280;20454;48.100;11.776;2023-02-19T18:25:15;96272.97;;;8.62;70.86
34185;BME280;20454;48.100;11.776;2023-02-19T18:27:41;96286.00;;;8.61;70.27
34185;BME280;20454;48.100;11.776;2023-02-19T18:30:09;96288.25;;;8.59;70.71
34185;BME280;20454;48.100;11.776;2023-02-19T18:32:35;96293.25;;;8.57;71.02
34185;BME280;20454;48.100;11.776;2023-02-19T18:35:01;96291.53;;;8.61;70.75
34185;BME280;20454;48.100;11.776;2023-02-19T21:18:07;96352.28;;;8.19;75.61
34185;BME280;20454;48.100;11.776;2023-02-19T21:20:33;96360.31;;;8.16;75.47
34185;BME280;20454;48.100;11.776;2023-02-19T21:22:59;96362.25;;;8.15;75.25
34185;BME280;20454;48.100;11.776;2023-02-19T21:25:25;96366.72;;;8.11;75.72
34185;BME280;20454;48.100;11.776;2023-02-19T21:27:51;96375.03;;;8.11;75.74
34185;BME280;20454;48.100;11.776;2023-02-19T21:30:16;96376.94;;;8.16;75.50
34185;BME280;20454;48.100;11.776;2023-02-19T21:32:42;96377.78;;;8.21;75.40
34185;BME280;20454;48.100;11.776;2023-02-19T21:35:08;96370.56;;;8.25;74.98
34185;BME280;20454;48.100;11.776;2023-02-19T21:37:33;96366.69;;;8.21;75.38
34185;BME280;20454;48.100;11.776;2023-02-19T21:39:59;96357.28;;;8.17;75.56
34185;BME280;20454;48.100;11.776;2023-02-19T21:42:25;96365.03;;;8.20;75.61
34185;BME280;20454;48.100;11.776;2023-02-19T21:44:51;96360.03;;;8.22;75.76
34185;BME280;20454;48.100;11.776;2023-02-19T21:47:16;96358.41;;;8.16;75.54
34185;BME280;20454;48.100;11.776;2023-02-19T21:49:42;96350.63;;;8.13;75.82
34185;BME280;20454;48.100;11.776;2023-02-19T21:52:08;96343.47;;;8.07;76.26
34185;BME280;20454;48.100;11.776;2023-02-19T21:54:33;96356.19;;;8.08;76.21
34185;BME280;20454;48.100;11.776;2023-02-19T21:57:01;96345.69;;;8.05;76.00
34185;BME280;20454;48.100;11.776;2023-02-19T21:59:27;96355.38;;;8.08;75.96
34185;BME280;20454;48.100;11.776;2023-02-19T22:01:53;96345.16;;;8.03;76.45
34185;BME280;20454;48.100;11.776;2023-02-19T22:04:21;96353.16;;;8.05;76.41
34185;BME280;20454;48.100;11.776;2023-02-19T22:06:49;96355.66;;;8.06;76.08
34185;BME280;20454;48.100;11.776;2023-02-19T22:09:19;96350.06;;;8.16;75.52
34185;BME280;20454;48.100;11.776;2023-02-19T22:11:45;96340.38;;;8.14;75.28
34185;BME280;20454;48.100;11.776;2023-02-19T22:14:10;96353.13;;;8.20;75.54
34185;BME280;20454;48.100;11.776;2023-02-19T22:16:36;96344.84;;;8.10;76.20
34185;BME280;20454;48.100;11.776;2023-02-19T22:19:02;96350.34;;;8.15;75.87
34185;BME280;20454;48.100;11.776;2023-02-19T22:21:29;96355.06;;;8.14;75.53
34185;BME280;20454;48.100;11.776;2023-02-19T22:24:00;96357.81;;;8.14;75.63
34185;BME280;20454;48.100;11.776;2023-02-19T22:26:29;96361.72;;;8.13;75.84
34185;BME280;20454;48.100;11.776;2023-02-19T22:28:55;96356.16;;;8.18;75.36
34185;BME280;20454;48.100;11.776;2023-02-19T22:31:24;96362.59;;;8.04;75.76
34185;BME280;20454;48.100;11.776;2023-02-19T22:33:51;96360.91;;;8.13;76.39
34185;BME280;20454;48.100;11.776;2023-02-19T22:36:23;96360.41;;;8.06;76.04
34185;BME280;20454;48.100;11.776;2023-02-19T22:38:49;96374.19;;;8.16;75.62
34185;BME280;20454;48.100;11.776;2023-02-19T22:41:16;96365.09;;;8.05;76.12
34185;BME280;20454;48.100;11.776;2023-02-19T22:43:42;96362.66;;;7.99;75.92
34185;BME280;20454;48.100;11.776;2023-02-19T22:46:13;96371.44;;;8.11;75.30
34185;BME280;20454;48.100;11.776;2023-02-19T22:48:39;96374.19;;;8.11;75.90
34185;BME280;20454;48.100;11.776;2023-02-19T22:51:12;96371.75;;;8.04;75.78
34185;BME280;20454;48.100;11.776;2023-02-19T22:53:49;96370.09;;;8.03;76.17
34185;BME280;20454;48.100;11.776;2023-02-19T22:56:16;96365.69;;;8.02;75.70
34185;BME280;20454;48.100;11.776;2023-02-19T22:58:43;96365.09;;;8.00;76.10
34185;BME280;20454;48.100;11.776;2023-02-19T23:01:11;96374.78;;;8.03;76.00
34185;BME280;20454;48.100;11.776;2023-02-19T23:03:54;96365.94;;;8.01;75.94